Leonard, Missouri
Current Conditions -  °F | °C
As of 5:55 AM on Monday 20 Oct 2014 (Local Time) from KIRK Reporting Station
Clear Clear  
Wind Chill: 53°   Ceiling: Unl
Heat Index: 53°   Visibility: 10mi
Dew Point: 49°   Wind: 9mph
Humidity: 86%   Direction: 280°W
Pressure: 29.96"   Gusts: NA
Location:  39.9°N, 92.18°W
Report Text: KIRK 201055Z AUTO 28008KT 10SM CLR 12/09 A2996 RMK AO2 SLP147 T01170094
Loading
Personal Weather Stations






























Interactive Weather Map
Tropical Storm Tracking
New forecast layout! Learn more

10-Day Weather Forecast

Advertisements
Track Severe Weather on mobile